Time;durP1;ratioP1;P1;durP2;ratioP2;P2;SDS_P1;SDS_P2;PMS_P1;PMS_P2;Temp;Humidity;BMP_temperature;BMP_pressure;BME280_temperature;BME280_humidity;BME280_pressure;Samples;Min_cycle;Max_cycle;Signal;HPM_P1;HPM_P2
2023/09/10 00:01:40;;;;;;;0.90;0.77;;;15.00;75.90;;;;;;5122645;28;20092;-73
2023/09/10 00:04:06;;;;;;;1.00;0.90;;;15.00;1.00;;;;;;5125491;28;20042;-73
2023/09/10 00:06:36;;;;;;;5.03;1.60;;;15.00;99.90;;;;;;5125471;28;20039;-73
2023/09/10 00:09:03;;;;;;;0.45;0.40;;;15.00;99.90;;;;;;5122702;28;20047;-73
2023/09/10 00:11:29;;;;;;;0.50;0.50;;;15.00;99.90;;;;;;5125290;27;20141;-73
2023/09/10 00:13:54;;;;;;;0.43;0.32;;;15.00;99.90;;;;;;5126768;27;20035;-73
2023/09/10 00:16:20;;;;;;;2.72;1.20;;;15.00;99.90;;;;;;5126116;27;20035;-73
2023/09/10 00:18:46;;;;;;;1.50;0.88;;;14.90;99.90;;;;;;5124268;27;20035;-73
2023/09/10 00:21:11;;;;;;;0.43;0.43;;;16.20;99.90;;;;;;5128068;27;20036;-73
2023/09/10 00:23:37;;;;;;;4.63;1.95;;;15.00;1.00;;;;;;5123575;27;20046;-75
2023/09/10 00:26:03;;;;;;;0.55;0.40;;;15.00;11.80;;;;;;5126368;27;20039;-73
2023/09/10 00:28:28;;;;;;;2.15;1.17;;;15.00;38.80;;;;;;5128735;27;20042;-73
2023/09/10 00:30:54;;;;;;;3.47;1.08;;;14.90;99.90;;;;;;5121860;27;20080;-73
2023/09/10 00:33:20;;;;;;;0.43;0.43;;;14.90;99.90;;;;;;5116508;27;20039;-76
2023/09/10 00:35:46;;;;;;;3.08;1.55;;;14.90;99.90;;;;;;5119317;27;20060;-73
2023/09/10 00:38:12;;;;;;;2.10;1.90;;;14.90;99.90;;;;;;5125793;27;20126;-73
2023/09/10 00:40:38;;;;;;;1.48;1.13;;;14.90;99.90;;;;;;5117430;27;20043;-73
2023/09/10 00:43:03;;;;;;;1.08;0.85;;;14.90;99.90;;;;;;5125216;27;20032;-73
2023/09/10 00:45:30;;;;;;;0.45;0.43;;;14.80;99.90;;;;;;5126951;27;20039;-73
2023/09/10 00:47:56;;;;;;;0.47;0.38;;;14.80;99.90;;;;;;5128358;27;20039;-73
2023/09/10 00:50:22;;;;;;;0.20;0.20;;;14.70;99.90;;;;;;5128762;27;20730;-72
2023/09/10 00:52:57;;;;;;;1.25;0.93;;;14.70;99.90;;;;;;5125342;27;20079;-73
2023/09/10 00:55:24;;;;;;;0.32;0.32;;;14.60;99.90;;;;;;5131687;27;20087;-73
2023/09/10 00:57:50;;;;;;;8.00;0.52;;;14.60;99.90;;;;;;5122782;27;20107;-73
2023/09/10 01:00:16;;;;;;;0.20;0.10;;;14.50;99.90;;;;;;5128898;27;20180;-73
2023/09/10 01:02:43;;;;;;;0.00;0.00;;;14.50;1.00;;;;;;5127448;27;20035;-73
2023/09/10 01:05:10;;;;;;;0.17;0.17;;;14.60;1.00;;;;;;5123810;27;20087;-73
2023/09/10 01:07:36;;;;;;;0.00;0.00;;;14.30;1.00;;;;;;5123455;27;20040;-73
2023/09/10 01:10:02;;;;;;;0.63;0.45;;;14.30;1.00;;;;;;5124575;27;20053;-72
2023/09/10 01:12:42;;;;;;;0.57;0.32;;;14.20;1.00;;;;;;5125053;27;20040;-72
2023/09/10 01:15:25;;;;;;;0.28;0.20;;;14.10;1.00;;;;;;5127589;27;20099;-73
2023/09/10 01:18:05;;;;;;;0.90;0.77;;;14.10;1.00;;;;;;5128330;27;20516;-73
2023/09/10 01:21:04;;;;;;;0.00;0.00;;;14.10;1.00;;;;;;5118435;27;20051;-73
2023/09/10 01:23:52;;;;;;;0.55;0.08;;;14.00;1.00;;;;;;5118654;27;20601;-73
2023/09/10 01:26:18;;;;;;;1.25;0.50;;;14.10;7.50;;;;;;5124649;27;20496;-73
2023/09/10 01:28:44;;;;;;;0.20;0.20;;;14.00;1.00;;;;;;5124838;27;20059;-73
2023/09/10 01:31:10;;;;;;;0.00;0.00;;;14.00;1.00;;;;;;5125246;27;20065;-73
2023/09/10 01:33:41;;;;;;;0.85;0.40;;;14.00;1.00;;;;;;5129275;27;20040;-73
2023/09/10 01:36:29;;;;;;;0.00;0.00;;;13.90;7.70;;;;;;5124931;27;20400;-73
2023/09/10 01:38:55;;;;;;;0.00;0.00;;;13.90;19.80;;;;;;5112828;27;20047;-73
2023/09/10 01:41:21;;;;;;;0.20;0.17;;;13.90;76.40;;;;;;5124493;27;20104;-73
2023/09/10 01:43:49;;;;;;;0.15;0.15;;;13.90;93.60;;;;;;5120587;27;20484;-73
2023/09/10 01:46:16;;;;;;;0.20;0.20;;;13.80;64.30;;;;;;5124452;27;20059;-72
2023/09/10 01:48:42;;;;;;;0.75;0.50;;;13.90;1.00;;;;;;5124487;27;20043;-72
2023/09/10 01:51:08;;;;;;;0.47;0.32;;;13.90;99.90;;;;;;5124454;27;20036;-72
2023/09/10 01:53:33;;;;;;;3.33;1.55;;;13.90;99.90;;;;;;5115883;27;20063;-72
2023/09/10 01:55:59;;;;;;;0.30;0.30;;;14.00;99.90;;;;;;5127306;27;20091;-72
2023/09/10 01:58:25;;;;;;;0.15;0.15;;;14.00;99.90;;;;;;5127269;27;20046;-72
2023/09/10 02:00:51;;;;;;;0.50;0.30;;;14.00;8.00;;;;;;5115800;27;20039;-72
2023/09/10 02:03:17;;;;;;;1.77;1.13;;;14.00;1.00;;;;;;5127552;27;20047;-72
2023/09/10 02:05:43;;;;;;;1.42;0.98;;;14.00;1.00;;;;;;5126627;27;20039;-72
2023/09/10 02:08:09;;;;;;;1.35;0.55;;;14.00;99.90;;;;;;5123693;27;20048;-72
2023/09/10 02:10:35;;;;;;;0.00;0.00;;;13.90;99.90;;;;;;5123264;27;20031;-72
2023/09/10 02:13:01;;;;;;;0.70;0.47;;;13.80;99.90;;;;;;5125916;27;20039;-72
2023/09/10 02:15:27;;;;;;;0.55;0.38;;;13.80;99.90;;;;;;5127179;27;20035;-72
2023/09/10 02:17:58;;;;;;;1.52;1.23;;;13.70;99.90;;;;;;5127422;27;20395;-72
2023/09/10 02:20:24;;;;;;;1.40;0.75;;;13.70;99.90;;;;;;5123287;27;20036;-72
2023/09/10 02:22:49;;;;;;;1.60;1.25;;;13.80;99.90;;;;;;5123612;27;20039;-73
2023/09/10 02:25:16;;;;;;;0.70;0.38;;;13.90;1.00;;;;;;5125883;27;20500;-72
2023/09/10 02:27:41;;;;;;;3.20;1.30;;;14.00;1.00;;;;;;5126704;27;20083;-73
2023/09/10 02:30:08;;;;;;;1.70;0.90;;;14.00;26.50;;;;;;5125643;27;20504;-72
2023/09/10 02:32:34;;;;;;;2.22;1.92;;;14.10;25.30;;;;;;5123406;27;20404;-72
2023/09/10 02:35:00;;;;;;;7.10;1.92;;;14.00;18.40;;;;;;5123188;27;20040;-72
2023/09/10 02:37:25;;;;;;;3.58;2.63;;;14.00;98.30;;;;;;5124562;27;20054;-72
2023/09/10 02:39:51;;;;;;;2.80;1.90;;;14.10;99.90;;;;;;5119007;27;20035;-72
2023/09/10 02:42:17;;;;;;;2.55;1.83;;;14.10;99.90;;;;;;5117511;27;20548;-72
2023/09/10 02:44:43;;;;;;;2.80;1.58;;;14.10;99.90;;;;;;5126724;27;20057;-72
2023/09/10 02:47:09;;;;;;;1.25;1.05;;;14.00;99.90;;;;;;5126330;27;20043;-72
2023/09/10 02:49:34;;;;;;;0.63;0.63;;;13.90;99.90;;;;;;5124495;27;20045;-73
2023/09/10 02:52:00;;;;;;;1.80;1.15;;;13.90;99.90;;;;;;5119486;27;20516;-73
2023/09/10 02:54:25;;;;;;;1.15;0.85;;;13.80;99.90;;;;;;5117781;27;20130;-72
2023/09/10 02:56:51;;;;;;;2.00;1.40;;;13.70;99.90;;;;;;5125630;27;20031;-73
2023/09/10 02:59:23;;;;;;;1.10;0.40;;;13.80;99.90;;;;;;5124415;27;20509;-72
2023/09/10 03:01:49;;;;;;;0.40;0.40;;;13.70;99.90;;;;;;5123848;27;20485;-73
2023/09/10 03:04:15;;;;;;;1.35;1.13;;;13.70;99.90;;;;;;5122740;27;20063;-73
2023/09/10 03:06:44;;;;;;;2.42;1.02;;;13.70;99.90;;;;;;5122537;27;20505;-74
2023/09/10 03:09:13;;;;;;;4.18;1.45;;;14.00;99.90;;;;;;5122400;27;20043;-73
2023/09/10 03:11:39;;;;;;;1.25;1.13;;;13.70;99.90;;;;;;5122760;27;20390;-73
2023/09/10 03:14:09;;;;;;;1.85;1.48;;;13.70;99.90;;;;;;5125182;27;20040;-73
2023/09/10 03:16:35;;;;;;;5.68;1.20;;;13.70;99.90;;;;;;5125405;27;20050;-73
2023/09/10 03:19:01;;;;;;;3.30;0.93;;;14.00;99.90;;;;;;5124115;27;20046;-73
2023/09/10 03:21:27;;;;;;;2.10;1.67;;;13.80;99.90;;;;;;5125385;27;20109;-73
2023/09/10 03:23:54;;;;;;;0.75;0.75;;;13.70;99.90;;;;;;5125931;27;20045;-73
2023/09/10 03:26:20;;;;;;;1.90;1.65;;;13.70;99.90;;;;;;5122757;27;20131;-73
2023/09/10 03:28:45;;;;;;;1.58;1.40;;;13.70;99.90;;;;;;5121825;27;20094;-73
2023/09/10 03:31:11;;;;;;;0.52;0.40;;;13.60;99.90;;;;;;5122898;27;20131;-73
2023/09/10 03:33:37;;;;;;;1.58;1.48;;;13.60;99.90;;;;;;5125344;27;20038;-73
2023/09/10 03:36:03;;;;;;;0.47;0.47;;;13.60;99.90;;;;;;5125020;27;20114;-73
2023/09/10 03:38:29;;;;;;;1.17;0.60;;;13.60;99.90;;;;;;5119485;27;20453;-73
2023/09/10 03:40:54;;;;;;;0.20;0.20;;;13.60;1.00;;;;;;5122556;27;20078;-77
2023/09/10 03:43:20;;;;;;;0.50;0.35;;;13.60;1.00;;;;;;5122822;27;20139;-73
2023/09/10 03:45:46;;;;;;;0.35;0.30;;;13.50;1.00;;;;;;5125438;27;20484;-73
2023/09/10 03:48:12;;;;;;;2.90;1.67;;;13.50;1.00;;;;;;5114301;27;20511;-73
2023/09/10 03:50:38;;;;;;;1.92;0.63;;;13.50;1.00;;;;;;5127436;27;20059;-73
2023/09/10 03:53:04;;;;;;;2.05;1.65;;;13.50;1.00;;;;;;5129830;27;20392;-73
2023/09/10 03:55:30;;;;;;;1.10;0.82;;;13.40;1.00;;;;;;5129625;27;20039;-73
2023/09/10 03:57:56;;;;;;;2.47;0.88;;;13.40;99.90;;;;;;5124354;27;20039;-73
2023/09/10 04:00:21;;;;;;;0.88;0.88;;;13.40;99.90;;;;;;5129548;27;20489;-73
2023/09/10 04:02:47;;;;;;;0.80;0.65;;;13.50;99.90;;;;;;5127965;27;20042;-73
2023/09/10 04:05:13;;;;;;;0.55;0.55;;;13.40;1.00;;;;;;5126578;27;20471;-73
2023/09/10 04:07:39;;;;;;;0.80;0.55;;;13.40;99.90;;;;;;5124268;27;20040;-73
2023/09/10 04:10:08;;;;;;;5.85;2.35;;;13.40;99.90;;;;;;5129349;27;20084;-73
2023/09/10 04:12:35;;;;;;;0.70;0.70;;;13.40;1.00;;;;;;5129033;27;20036;-72
2023/09/10 04:15:00;;;;;;;0.75;0.68;;;13.40;1.00;;;;;;5127323;27;20107;-73
2023/09/10 04:17:29;;;;;;;0.43;0.40;;;13.30;1.00;;;;;;5124493;27;20576;-73
2023/09/10 04:19:58;;;;;;;1.13;0.68;;;13.20;1.00;;;;;;5125899;27;20036;-73
2023/09/10 04:22:24;;;;;;;1.70;1.48;;;13.20;1.00;;;;;;5125017;27;20035;-73
2023/09/10 04:24:50;;;;;;;0.55;0.45;;;13.20;1.00;;;;;;5124610;27;20031;-73
2023/09/10 04:27:16;;;;;;;0.13;0.13;;;13.20;1.00;;;;;;5125940;27;20039;-73
2023/09/10 04:29:41;;;;;;;0.50;0.50;;;13.20;1.00;;;;;;5126135;27;20036;-73
2023/09/10 04:32:07;;;;;;;1.17;0.40;;;13.20;1.00;;;;;;5125594;27;20046;-73
2023/09/10 04:34:33;;;;;;;1.35;0.88;;;13.20;99.90;;;;;;5128591;27;20038;-73
2023/09/10 04:36:58;;;;;;;1.38;1.13;;;13.20;99.90;;;;;;5125302;27;20031;-73
2023/09/10 04:39:24;;;;;;;1.00;0.73;;;13.30;99.90;;;;;;5127237;27;20121;-73
2023/09/10 04:41:49;;;;;;;0.95;0.90;;;13.30;99.90;;;;;;5125336;27;20551;-75
2023/09/10 04:44:16;;;;;;;0.90;0.75;;;13.30;1.00;;;;;;5125487;27;20039;-73
2023/09/10 04:46:41;;;;;;;0.40;0.38;;;13.20;1.00;;;;;;5127686;27;20035;-73
2023/09/10 04:49:07;;;;;;;5.75;1.25;;;13.20;1.00;;;;;;5128622;27;20118;-73
2023/09/10 04:51:33;;;;;;;0.57;0.55;;;13.20;1.00;;;;;;5126660;27;20047;-73
2023/09/10 04:53:58;;;;;;;0.47;0.32;;;13.20;1.00;;;;;;5125182;27;20040;-73
2023/09/10 04:56:24;;;;;;;1.63;1.10;;;13.10;1.00;;;;;;5121615;27;20470;-73
2023/09/10 04:58:49;;;;;;;0.75;0.43;;;13.10;1.00;;;;;;5124199;27;20044;-73
2023/09/10 05:01:15;;;;;;;0.30;0.30;;;13.20;1.00;;;;;;5124868;27;20438;-73
2023/09/10 05:03:41;;;;;;;3.72;1.75;;;13.30;99.90;;;;;;5125269;27;20115;-73
2023/09/10 05:06:08;;;;;;;0.80;0.60;;;13.20;99.90;;;;;;5128334;27;20043;-73
2023/09/10 05:08:34;;;;;;;0.85;0.57;;;13.20;99.90;;;;;;5124268;27;20039;-73
2023/09/10 05:11:00;;;;;;;0.88;0.47;;;13.10;99.90;;;;;;5126976;27;20043;-73
2023/09/10 05:13:26;;;;;;;0.98;0.15;;;13.10;99.90;;;;;;5127632;27;20468;-73
2023/09/10 05:15:54;;;;;;;0.35;0.35;;;13.10;99.90;;;;;;5127174;27;20092;-73
2023/09/10 05:18:21;;;;;;;1.27;0.80;;;13.10;99.90;;;;;;5124212;27;20074;-75
2023/09/10 05:20:48;;;;;;;0.32;0.32;;;13.20;99.90;;;;;;5124936;27;20081;-73
2023/09/10 05:23:13;;;;;;;0.85;0.60;;;13.20;99.90;;;;;;5127248;27;20090;-73
2023/09/10 05:25:39;;;;;;;0.30;0.30;;;13.20;99.90;;;;;;5126409;27;20059;-73
2023/09/10 05:28:05;;;;;;;4.38;1.58;;;13.20;99.90;;;;;;5127795;27;20089;-73
2023/09/10 05:30:31;;;;;;;0.68;0.68;;;13.50;99.90;;;;;;5132455;27;20084;-73
2023/09/10 05:32:57;;;;;;;0.50;0.50;;;13.50;99.90;;;;;;5124591;27;20032;-73
2023/09/10 05:35:24;;;;;;;0.93;0.47;;;13.60;99.90;;;;;;5125992;27;20150;-73
2023/09/10 05:37:50;;;;;;;0.40;0.40;;;13.60;99.90;;;;;;5125832;27;20118;-73
2023/09/10 05:40:15;;;;;;;0.95;0.40;;;13.70;99.90;;;;;;5127315;27;20077;-73
2023/09/10 05:42:41;;;;;;;0.20;0.15;;;13.70;99.90;;;;;;5124078;27;20070;-73
2023/09/10 05:45:07;;;;;;;0.10;0.10;;;13.80;99.90;;;;;;5123468;27;20116;-73
2023/09/10 05:47:33;;;;;;;3.15;1.13;;;13.80;99.90;;;;;;5125846;27;20132;-73
2023/09/10 05:49:59;;;;;;;0.03;0.03;;;13.80;99.90;;;;;;5127818;27;20073;-73
2023/09/10 05:52:25;;;;;;;0.20;0.20;;;13.90;99.90;;;;;;5126871;27;20535;-73
2023/09/10 05:54:51;;;;;;;0.10;0.10;;;14.00;99.90;;;;;;5123407;27;20075;-73
2023/09/10 05:57:17;;;;;;;8.52;0.95;;;14.10;99.90;;;;;;5112314;27;20035;-73
2023/09/10 05:59:42;;;;;;;1.02;0.68;;;14.20;99.90;;;;;;5115690;27;20044;-73
2023/09/10 06:02:08;;;;;;;0.47;0.47;;;14.30;99.90;;;;;;5127252;27;20035;-73
2023/09/10 06:04:34;;;;;;;0.25;0.25;;;14.30;99.90;;;;;;5127286;27;20111;-72
2023/09/10 06:07:03;;;;;;;0.15;0.15;;;14.40;99.90;;;;;;5123360;27;20043;-72
2023/09/10 06:09:30;;;;;;;0.45;0.22;;;14.60;99.90;;;;;;5120451;27;20027;-72
2023/09/10 06:11:57;;;;;;;0.40;0.30;;;14.70;99.90;;;;;;5122901;27;20089;-73
2023/09/10 06:14:23;;;;;;;1.17;0.57;;;15.00;99.90;;;;;;5117915;27;20081;-72
2023/09/10 06:16:49;;;;;;;1.98;1.17;;;15.50;99.90;;;;;;5112485;27;20039;-72
2023/09/10 06:19:14;;;;;;;1.42;1.27;;;16.00;99.90;;;;;;5121872;27;20405;-73
2023/09/10 06:21:41;;;;;;;3.00;2.30;;;16.40;99.90;;;;;;5123496;27;20527;-73
2023/09/10 06:24:06;;;;;;;4.25;1.75;;;16.50;76.00;;;;;;5124897;27;20058;-73
2023/09/10 06:26:32;;;;;;;1.13;1.02;;;16.90;1.00;;;;;;5126601;27;20036;-73
2023/09/10 06:28:59;;;;;;;2.08;1.67;;;17.20;99.90;;;;;;5126482;27;20073;-73
2023/09/10 06:31:25;;;;;;;3.95;2.58;;;17.50;99.90;;;;;;5122122;27;20036;-73
2023/09/10 06:33:50;;;;;;;4.82;2.90;;;17.70;1.00;;;;;;5120172;27;20054;-72
2023/09/10 06:36:16;;;;;;;2.05;1.60;;;18.00;99.90;;;;;;5119893;27;20035;-74
2023/09/10 06:38:47;;;;;;;3.90;2.30;;;18.10;99.90;;;;;;5122343;27;20152;-73
2023/09/10 06:41:14;;;;;;;5.47;2.65;;;18.40;99.90;;;;;;5123130;27;20061;-73
2023/09/10 06:43:39;;;;;;;1.23;0.85;;;18.60;85.70;;;;;;5096982;27;20092;-74
2023/09/10 06:46:05;;;;;;;3.78;2.30;;;18.80;1.00;;;;;;5131029;27;20046;-73
2023/09/10 06:48:31;;;;;;;2.20;1.88;;;19.00;99.90;;;;;;5121484;27;20451;-73
2023/09/10 06:51:00;;;;;;;4.15;2.72;;;19.40;31.60;;;;;;5119342;27;20062;-74
2023/09/10 06:53:26;;;;;;;2.35;1.80;;;19.60;99.90;;;;;;5129651;27;20253;-74
2023/09/10 06:55:54;;;;;;;0.90;0.88;;;19.90;97.70;;;;;;5115015;27;20066;-74
2023/09/10 06:58:20;;;;;;;2.08;1.48;;;19.80;1.00;;;;;;5122866;27;20439;-74
2023/09/10 07:00:46;;;;;;;5.45;2.80;;;19.50;99.90;;;;;;5111131;27;20112;-74
2023/09/10 07:03:13;;;;;;;2.55;2.00;;;19.30;19.50;;;;;;5123033;27;20043;-74
2023/09/10 07:05:40;;;;;;;2.97;2.08;;;19.10;1.00;;;;;;5122903;27;20399;-74
2023/09/10 07:08:07;;;;;;;3.08;1.88;;;19.10;1.00;;;;;;5119469;27;20036;-74
2023/09/10 07:10:33;;;;;;;3.58;1.70;;;19.00;99.90;;;;;;5119886;27;20483;-74
2023/09/10 07:12:59;;;;;;;2.08;1.67;;;19.20;58.60;;;;;;5121315;27;20511;-74
2023/09/10 07:15:25;;;;;;;1.23;1.02;;;19.20;99.90;;;;;;5122581;27;20166;-75
2023/09/10 07:17:51;;;;;;;1.60;0.95;;;19.30;99.20;;;;;;5122387;27;20122;-74
2023/09/10 07:20:16;;;;;;;3.38;2.33;;;19.30;99.90;;;;;;5119075;27;20085;-74
2023/09/10 07:22:42;;;;;;;2.45;2.25;;;19.40;99.90;;;;;;5120344;27;20043;-74
2023/09/10 07:25:08;;;;;;;2.83;2.03;;;19.40;1.00;;;;;;5118632;27;20495;-74
2023/09/10 07:27:34;;;;;;;3.35;2.72;;;19.60;1.00;;;;;;5121452;27;20031;-74
2023/09/10 07:29:59;;;;;;;1.08;1.00;;;19.70;98.70;;;;;;5123321;27;20106;-74
2023/09/10 07:32:25;;;;;;;2.95;2.72;;;19.80;99.90;;;;;;5114847;27;20042;-75
2023/09/10 07:34:51;;;;;;;4.57;1.92;;;19.90;1.00;;;;;;5117683;27;20062;-75
2023/09/10 07:37:16;;;;;;;3.75;2.20;;;20.20;1.00;;;;;;5112637;27;20104;-74
2023/09/10 07:39:43;;;;;;;4.65;2.65;;;20.20;99.90;;;;;;5117919;27;20039;-74
2023/09/10 07:42:08;;;;;;;1.95;1.55;;;20.50;1.00;;;;;;5119753;27;20055;-74
2023/09/10 07:44:34;;;;;;;6.85;2.20;;;20.60;99.90;;;;;;5120870;27;20051;-75
2023/09/10 07:46:59;;;;;;;7.22;2.60;;;20.80;7.80;;;;;;5122777;28;20039;-74
2023/09/10 07:49:25;;;;;;;1.65;1.55;;;20.90;99.90;;;;;;5117301;28;20032;-74
2023/09/10 07:51:51;;;;;;;2.22;1.67;;;21.00;1.00;;;;;;5122295;28;20051;-74
2023/09/10 07:54:16;;;;;;;1.40;1.30;;;21.20;1.00;;;;;;5122511;28;20050;-74
2023/09/10 07:56:42;;;;;;;3.05;1.27;;;21.30;1.00;;;;;;5123698;28;20035;-74
2023/09/10 07:59:11;;;;;;;0.88;0.82;;;21.50;99.90;;;;;;5124643;27;20396;-74
2023/09/10 08:01:40;;;;;;;1.13;0.93;;;21.80;99.90;;;;;;5114360;27;20066;-74
2023/09/10 08:04:06;;;;;;;8.38;2.25;;;21.90;1.00;;;;;;5118291;28;20553;-74
2023/09/10 08:06:31;;;;;;;2.00;1.60;;;22.10;1.00;;;;;;5118080;28;20074;-74
2023/09/10 08:08:57;;;;;;;1.00;0.85;;;22.30;99.90;;;;;;5121782;28;20039;-74
2023/09/10 08:11:23;;;;;;;1.75;1.20;;;22.50;1.00;;;;;;5120583;27;20078;-74
2023/09/10 08:13:50;;;;;;;1.90;1.73;;;23.10;1.00;;;;;;5122350;28;20078;-74
2023/09/10 08:16:17;;;;;;;0.25;0.25;;;23.90;99.90;;;;;;5119981;28;20036;-74
2023/09/10 08:18:44;;;;;;;1.85;1.30;;;24.80;99.90;;;;;;5119609;28;20118;-74
2023/09/10 08:21:10;;;;;;;0.55;0.55;;;25.90;99.90;;;;;;5119286;28;20054;-74
2023/09/10 08:23:36;;;;;;;3.42;2.25;;;26.30;99.90;;;;;;5113652;28;20487;-74
2023/09/10 08:26:02;;;;;;;2.55;2.17;;;26.40;99.90;;;;;;5112880;28;20039;-74
2023/09/10 08:28:28;;;;;;;5.60;1.23;;;26.80;99.90;;;;;;5119122;27;20409;-72
2023/09/10 08:30:54;;;;;;;1.90;1.52;;;27.20;99.90;;;;;;5119287;28;20043;-73
2023/09/10 08:33:26;;;;;;;1.10;1.00;;;27.40;99.90;;;;;;5123573;27;20408;-73
2023/09/10 08:35:52;;;;;;;0.95;0.85;;;28.00;99.90;;;;;;5128336;27;20080;-73
2023/09/10 08:38:18;;;;;;;1.35;0.93;;;28.10;99.90;;;;;;5126434;27;20054;-73
2023/09/10 08:40:53;;;;;;;2.53;0.93;;;28.70;99.90;;;;;;5125218;27;20040;-73
2023/09/10 08:43:23;;;;;;;2.88;1.63;;;28.00;99.90;;;;;;5125131;27;20040;-73
2023/09/10 08:45:50;;;;;;;2.17;1.90;;;28.30;99.90;;;;;;5128246;27;20087;-73
2023/09/10 08:48:19;;;;;;;1.85;0.85;;;27.70;89.90;;;;;;5125706;27;20453;-73
2023/09/10 08:50:46;;;;;;;1.17;0.93;;;27.80;78.70;;;;;;5122216;27;20103;-73
2023/09/10 08:53:13;;;;;;;1.02;0.80;;;27.80;74.00;;;;;;5124508;27;20397;-73
2023/09/10 08:55:42;;;;;;;0.43;0.43;;;29.00;99.90;;;;;;5126065;27;20560;-73
2023/09/10 08:58:11;;;;;;;6.97;1.35;;;28.80;86.50;;;;;;5127139;27;20117;-73
2023/09/10 09:00:38;;;;;;;0.88;0.73;;;29.90;99.90;;;;;;5127287;27;20110;-73
2023/09/10 09:03:04;;;;;;;5.88;1.23;;;30.10;99.90;;;;;;5124459;27;20115;-73
2023/09/10 09:05:31;;;;;;;0.38;0.38;;;29.80;35.40;;;;;;5124586;27;20118;-73
2023/09/10 09:08:04;;;;;;;1.13;0.63;;;29.80;29.10;;;;;;5126244;27;20036;-73
2023/09/10 09:10:30;;;;;;;1.08;0.98;;;29.80;14.50;;;;;;5127870;27;20047;-73
2023/09/10 09:13:04;;;;;;;0.77;0.52;;;29.30;1.00;;;;;;5125861;27;20447;-73
2023/09/10 09:15:31;;;;;;;1.15;0.70;;;29.90;5.90;;;;;;5124366;27;20047;-73
2023/09/10 09:17:58;;;;;;;1.38;1.02;;;29.20;1.00;;;;;;5124768;27;20089;-73
2023/09/10 09:20:24;;;;;;;1.55;0.85;;;30.00;30.50;;;;;;5127481;27;20043;-73
2023/09/10 09:22:55;;;;;;;1.35;1.15;;;29.80;1.00;;;;;;5127333;27;20089;-73
2023/09/10 09:25:20;;;;;;;0.32;0.32;;;30.10;1.70;;;;;;5115489;27;20112;-73
2023/09/10 09:27:48;;;;;;;1.92;1.35;;;30.20;3.80;;;;;;5120243;27;20481;-73
2023/09/10 09:30:14;;;;;;;1.67;0.88;;;30.30;1.00;;;;;;5123816;27;20118;-73
2023/09/10 09:32:40;;;;;;;1.73;1.20;;;30.30;1.00;;;;;;5127505;27;20122;-73
2023/09/10 09:35:09;;;;;;;0.63;0.30;;;30.00;1.00;;;;;;5127474;27;20062;-73
2023/09/10 09:37:35;;;;;;;0.75;0.50;;;29.90;1.00;;;;;;5113447;27;20053;-73
2023/09/10 09:40:02;;;;;;;1.55;0.63;;;30.00;1.00;;;;;;5120173;27;20674;-73
2023/09/10 09:42:28;;;;;;;1.10;0.63;;;29.80;1.00;;;;;;5125393;27;20050;-73
2023/09/10 09:44:54;;;;;;;0.85;0.80;;;29.70;1.00;;;;;;5125551;27;20157;-73
2023/09/10 09:47:20;;;;;;;1.35;0.63;;;29.80;1.00;;;;;;5117232;27;20039;-73
2023/09/10 09:49:48;;;;;;;1.33;0.65;;;29.90;1.00;;;;;;5122011;27;20051;-73
2023/09/10 09:52:15;;;;;;;1.55;0.98;;;29.50;1.00;;;;;;5123435;27;20096;-73
2023/09/10 09:54:40;;;;;;;1.20;0.80;;;29.20;1.00;;;;;;5125503;27;20481;-73
2023/09/10 09:57:06;;;;;;;0.57;0.55;;;29.00;1.00;;;;;;5121129;27;20043;-73
2023/09/10 09:59:38;;;;;;;1.20;0.90;;;28.90;1.00;;;;;;5120089;27;20043;-73
2023/09/10 10:02:04;;;;;;;1.55;1.23;;;29.30;1.00;;;;;;5120457;27;20050;-73
2023/09/10 10:04:33;;;;;;;4.32;1.50;;;29.40;1.00;;;;;;5123320;27;20498;-73
2023/09/10 10:07:01;;;;;;;0.55;0.52;;;29.10;1.00;;;;;;5125162;27;20054;-73
2023/09/10 10:09:40;;;;;;;1.38;0.70;;;29.00;1.00;;;;;;5126677;27;20484;-73
2023/09/10 10:12:07;;;;;;;1.35;1.00;;;29.30;1.00;;;;;;5123332;27;20054;-73
2023/09/10 10:14:34;;;;;;;1.25;0.70;;;29.00;1.00;;;;;;5123344;27;20111;-73
2023/09/10 10:17:01;;;;;;;0.98;0.50;;;28.60;1.00;;;;;;5119487;27;20048;-73
2023/09/10 10:19:31;;;;;;;0.60;0.57;;;28.60;1.00;;;;;;5121403;27;20039;-73
2023/09/10 10:21:57;;;;;;;0.70;0.65;;;28.40;1.00;;;;;;5121930;27;20043;-73
2023/09/10 10:24:23;;;;;;;1.13;0.73;;;28.10;1.00;;;;;;5122838;27;20044;-73
2023/09/10 10:26:51;;;;;;;1.48;1.02;;;28.20;1.00;;;;;;5121990;27;20040;-73
2023/09/10 10:29:21;;;;;;;0.95;0.70;;;28.10;1.00;;;;;;5124937;27;20051;-73
2023/09/10 10:32:03;;;;;;;0.28;0.28;;;28.40;1.00;;;;;;5126284;27;20054;-73
2023/09/10 10:34:41;;;;;;;2.60;0.75;;;28.80;1.00;;;;;;5122805;27;20035;-73
2023/09/10 10:37:15;;;;;;;0.75;0.73;;;28.80;1.00;;;;;;5117551;27;20036;-73
2023/09/10 10:40:05;;;;;;;2.85;0.75;;;28.90;1.00;;;;;;5115102;27;20047;-73
2023/09/10 10:42:38;;;;;;;0.32;0.32;;;28.80;1.00;;;;;;5124806;27;20146;-73
2023/09/10 10:45:09;;;;;;;0.30;0.30;;;29.10;1.00;;;;;;5123336;27;20045;-73
2023/09/10 10:47:40;;;;;;;0.57;0.30;;;29.80;1.00;;;;;;5124761;27;20044;-73
2023/09/10 10:50:09;;;;;;;0.82;0.65;;;30.00;1.00;;;;;;5125899;27;20399;-73
2023/09/10 10:52:47;;;;;;;1.10;0.70;;;30.20;1.00;;;;;;5123938;27;20202;-73
2023/09/10 10:55:13;;;;;;;1.05;0.77;;;30.20;1.00;;;;;;5120356;27;20073;-73
2023/09/10 10:57:39;;;;;;;0.70;0.45;;;30.00;1.00;;;;;;5116618;27;20081;-73
2023/09/10 11:00:09;;;;;;;0.95;0.60;;;29.80;1.00;;;;;;5125845;27;20035;-74
2023/09/10 11:02:35;;;;;;;0.47;0.47;;;30.00;1.00;;;;;;5125526;27;20095;-73
2023/09/10 11:05:03;;;;;;;0.55;0.55;;;30.20;1.00;;;;;;5122013;27;20035;-73
2023/09/10 11:07:31;;;;;;;0.43;0.40;;;29.90;1.00;;;;;;5117296;27;20508;-73
2023/09/10 11:10:16;;;;;;;0.50;0.47;;;29.60;1.00;;;;;;5124188;27;20047;-73
2023/09/10 11:13:05;;;;;;;1.75;0.98;;;30.00;1.00;;;;;;5125747;27;20053;-73
2023/09/10 11:15:31;;;;;;;1.48;0.95;;;30.10;1.00;;;;;;5114013;27;20036;-73
2023/09/10 11:18:34;;;;;;;0.63;0.50;;;30.40;1.00;;;;;;5102234;27;20469;-73
2023/09/10 11:21:00;;;;;;;3.63;0.90;;;30.20;1.00;;;;;;5125772;27;20041;-73
2023/09/10 11:23:25;;;;;;;2.15;1.23;;;30.30;1.00;;;;;;5123426;27;20031;-73
2023/09/10 11:25:51;;;;;;;4.32;1.13;;;30.10;1.00;;;;;;5118971;27;20446;-74
2023/09/10 11:28:47;;;;;;;0.55;0.50;;;30.40;1.00;;;;;;5107858;27;20044;-74
2023/09/10 11:31:38;;;;;;;3.15;0.57;;;30.90;1.00;;;;;;5125910;27;20510;-74
2023/09/10 11:34:23;;;;;;;1.67;1.13;;;31.10;1.00;;;;;;5126100;27;20031;-74
2023/09/10 11:36:50;;;;;;;;;;;30.80;1.00;;;;;;5117493;27;20167;-73
2023/09/10 11:39:17;;;;;;;1.58;1.02;;;30.90;1.00;;;;;;5125114;27;19919;-74
2023/09/10 11:41:47;;;;;;;7.38;1.38;;;31.50;1.00;;;;;;5122956;27;20120;-74
2023/09/10 11:44:13;;;;;;;1.02;0.63;;;32.30;1.00;;;;;;5123018;28;20119;-74
2023/09/10 11:46:39;;;;;;;1.48;0.65;;;32.20;1.00;;;;;;5118717;27;20047;-73
2023/09/10 11:49:05;;;;;;;0.60;0.57;;;32.20;1.00;;;;;;5126121;28;20553;-73
2023/09/10 11:51:31;;;;;;;1.30;0.77;;;32.30;1.00;;;;;;5124393;28;20047;-74
2023/09/10 11:53:57;;;;;;;2.30;1.02;;;32.30;1.00;;;;;;5122793;28;20036;-74
2023/09/10 11:56:24;;;;;;;1.35;0.85;;;32.40;1.00;;;;;;5127015;27;20131;-74
2023/09/10 11:58:49;;;;;;;0.63;0.52;;;32.40;1.00;;;;;;5123109;27;20069;-73
2023/09/10 12:01:15;;;;;;;1.98;1.25;;;32.40;1.00;;;;;;5122264;28;20035;-74
2023/09/10 12:03:41;;;;;;;0.28;0.28;;;32.40;1.00;;;;;;5122338;28;20035;-74
2023/09/10 12:06:07;;;;;;;1.45;0.80;;;32.90;1.00;;;;;;5123344;27;20386;-74
2023/09/10 12:08:33;;;;;;;1.10;0.75;;;33.50;1.00;;;;;;5126033;27;20039;-73
2023/09/10 12:11:03;;;;;;;0.93;0.70;;;33.30;1.00;;;;;;5126529;27;20388;-73
2023/09/10 12:13:32;;;;;;;0.70;0.70;;;32.90;1.00;;;;;;5125330;27;20408;-73
2023/09/10 12:15:58;;;;;;;16.05;1.42;;;32.40;1.00;;;;;;5126429;27;20065;-74
2023/09/10 12:18:24;;;;;;;1.10;0.75;;;32.50;1.00;;;;;;5129097;27;20031;-74
2023/09/10 12:20:50;;;;;;;1.25;0.95;;;33.20;1.00;;;;;;5127117;27;20051;-74
2023/09/10 12:23:15;;;;;;;0.40;0.40;;;32.70;1.00;;;;;;5125035;27;20085;-74
2023/09/10 12:25:41;;;;;;;1.60;0.70;;;32.70;1.00;;;;;;5124670;27;20036;-74
2023/09/10 12:28:07;;;;;;;0.88;0.80;;;32.60;1.00;;;;;;5126433;27;20046;-74
2023/09/10 12:30:34;;;;;;;1.58;1.00;;;33.10;1.00;;;;;;5128533;27;20035;-74
2023/09/10 12:33:00;;;;;;;1.20;0.57;;;32.90;1.00;;;;;;5128475;27;20500;-73
2023/09/10 12:35:26;;;;;;;0.75;0.68;;;32.80;1.00;;;;;;5125330;27;20043;-74
2023/09/10 12:37:54;;;;;;;0.82;0.60;;;32.50;1.00;;;;;;5120612;27;20035;-73
2023/09/10 12:40:20;;;;;;;2.45;1.08;;;32.70;1.00;;;;;;5126391;27;20044;-73
2023/09/10 12:42:48;;;;;;;0.32;0.30;;;32.40;1.00;;;;;;5128071;27;20317;-73
2023/09/10 12:45:15;;;;;;;1.75;1.05;;;32.60;1.00;;;;;;5127475;27;20118;-73
2023/09/10 12:47:42;;;;;;;1.52;0.75;;;33.30;1.00;;;;;;5116380;27;20499;-74
2023/09/10 12:50:08;;;;;;;1.30;0.88;;;33.00;1.00;;;;;;5124720;27;20100;-73
2023/09/10 12:52:35;;;;;;;1.67;0.82;;;32.60;1.00;;;;;;5126442;27;20442;-73
2023/09/10 12:55:02;;;;;;;3.22;1.00;;;32.50;1.00;;;;;;5115400;27;20040;-74